Time;durP1;ratioP1;P1;durP2;ratioP2;P2;SDS_P1;SDS_P2;PMS_P1;PMS_P2;Temp;Humidity;BMP_temperature;BMP_pressure;BME280_temperature;BME280_humidity;BME280_pressure;Samples;Min_cycle;Max_cycle;Signal;HPM_P1;HPM_P2
2022/06/21 00:01:01;;;;;;;15.25;2.40;;;;;;;9.33;96.13;101599.06;2088393;28;20049;-73
2022/06/21 00:02:03;;;;;;;15.65;2.15;;;;;;;9.35;96.62;101597.25;2088061;28;25705;-73
2022/06/21 00:03:14;;;;;;;9.70;1.92;;;;;;;9.36;96.73;101596.34;2089266;28;20064;-73
2022/06/21 00:04:18;;;;;;;;;;;;;;;9.44;96.52;101590.97;2089711;28;25731;-73
2022/06/21 00:05:29;;;;;;;16.17;2.03;;;;;;;9.42;97.14;101587.41;2089688;28;19921;-72
2022/06/21 00:06:31;;;;;;;10.98;1.70;;;;;;;9.42;95.90;101595.44;2088589;28;20809;-72
2022/06/21 00:07:34;;;;;;;16.33;1.70;;;;;;;9.37;96.42;101586.56;2088972;28;25953;-73
2022/06/21 00:08:36;;;;;;;12.40;1.92;;;;;;;9.43;96.26;101586.50;2096418;28;21439;-72
2022/06/21 00:09:38;;;;;;;14.57;1.65;;;;;;;9.38;96.37;101592.78;2088960;28;27131;-71
2022/06/21 00:10:43;;;;;;;10.82;1.77;;;;;;;9.34;95.97;101591.91;2088410;28;20139;-71
2022/06/21 00:11:44;;;;;;;14.38;1.58;;;;;;;9.32;95.95;101589.25;2088910;28;20895;-72
2022/06/21 00:12:49;;;;;;;9.55;1.63;;;;;;;9.32;96.91;101588.38;2088739;28;20923;-72
2022/06/21 00:13:51;;;;;;;9.98;1.60;;;;;;;9.29;96.63;101585.72;2089109;28;20099;-72
2022/06/21 00:14:53;;;;;;;9.10;1.70;;;;;;;9.29;96.81;101588.38;2079322;28;29170;-73
2022/06/21 00:16:07;;;;;;;10.75;2.00;;;;;;;9.34;97.76;101583.91;2081022;28;20041;-71
2022/06/21 00:17:21;;;;;;;15.27;2.05;;;;;;;9.31;96.55;101582.16;2089141;28;20042;-71
2022/06/21 00:18:26;;;;;;;14.52;2.30;;;;;;;9.23;96.84;101588.44;2088799;28;20045;-71
2022/06/21 00:19:27;;;;;;;16.85;1.98;;;;;;;9.24;96.50;101595.53;2081116;28;22290;-75
2022/06/21 00:20:31;;;;;;;13.50;1.75;;;;;;;9.24;97.09;101592.88;2088584;28;20980;-74
2022/06/21 00:21:37;;;;;;;10.60;1.95;;;;;;;9.23;96.83;101596.47;2089253;28;20107;-74
2022/06/21 00:22:40;;;;;;;15.32;2.30;;;;;;;9.24;96.97;101592.88;2087260;28;27311;-74
2022/06/21 00:23:44;;;;;;;9.38;2.03;;;;;;;9.18;96.93;101597.34;2088731;28;20042;-73
2022/06/21 00:24:48;;;;;;;10.25;1.83;;;;;;;9.15;97.59;101597.41;2088498;28;27035;-72
2022/06/21 00:25:55;;;;;;;11.80;1.55;;;;;;;9.12;96.89;101600.06;2088309;28;21008;-74
2022/06/21 00:26:56;;;;;;;12.05;1.90;;;;;;;9.12;97.82;101594.72;2088444;28;22515;-73
2022/06/21 00:28:01;;;;;;;14.68;1.75;;;;;;;9.07;96.90;101596.53;2088001;28;26525;-75
2022/06/21 00:29:02;;;;;;;15.60;2.80;;;;;;;9.06;97.45;101600.13;2088298;28;20133;-72
2022/06/21 00:30:05;;;;;;;14.15;2.10;;;;;;;9.03;97.83;101597.47;2088830;28;28776;-73
2022/06/21 00:31:19;;;;;;;12.23;1.85;;;;;;;9.06;97.21;101597.47;2088300;28;20438;-72
2022/06/21 00:32:21;;;;;;;12.52;2.17;;;;;;;9.01;98.15;101598.34;2081684;28;37183;-71
2022/06/21 00:33:24;;;;;;;14.77;2.40;;;;;;;9.00;98.03;101599.28;2080228;28;30060;-73
2022/06/21 00:34:26;;;;;;;9.65;1.50;;;;;;;8.96;97.85;101598.41;2080424;28;40162;-71
2022/06/21 00:35:28;;;;;;;15.23;2.72;;;;;;;9.00;98.40;101610.84;2080138;28;21425;-74
2022/06/21 00:36:34;;;;;;;11.07;2.00;;;;;;;8.94;97.94;101597.53;2080251;28;20108;-73
2022/06/21 00:37:36;;;;;;;10.35;1.85;;;;;;;8.93;97.27;101601.97;2081331;28;20038;-72
2022/06/21 00:38:38;;;;;;;9.93;1.95;;;;;;;8.92;97.75;101599.31;2087769;28;20041;-73
2022/06/21 00:39:40;;;;;;;10.18;2.38;;;;;;;8.92;98.45;101597.53;2088759;28;20064;-71
2022/06/21 00:40:43;;;;;;;9.70;1.70;;;;;;;8.88;97.69;101589.53;2089155;28;20046;-71
2022/06/21 00:41:57;;;;;;;15.88;2.08;;;;;;;8.85;97.48;101597.59;2088546;28;21214;-73
2022/06/21 00:43:07;;;;;;;12.20;1.65;;;;;;;8.81;98.59;101596.72;2088027;28;32564;-72
2022/06/21 00:44:24;;;;;;;11.25;1.83;;;;;;;8.81;97.75;101590.47;2089161;28;20086;-74
2022/06/21 00:45:44;;;;;;;10.60;2.00;;;;;;;8.85;99.53;101590.44;2088428;28;22537;-74
2022/06/21 00:46:53;;;;;;;12.40;2.10;;;;;;;8.76;98.30;101586.03;2088313;28;27409;-73
2022/06/21 00:48:02;;;;;;;10.60;1.65;;;;;;;8.75;98.74;101586.03;2087765;28;24091;-72
2022/06/21 00:49:16;;;;;;;11.98;1.50;;;;;;;8.69;97.96;101581.63;2088116;28;29352;-73
2022/06/21 00:50:37;;;;;;;8.70;2.05;;;;;;;8.65;98.32;101581.63;2088183;28;29185;-75
2022/06/21 00:51:41;;;;;;;11.35;2.30;;;;;;;8.61;98.38;101572.75;2083916;28;26008;-70
2022/06/21 00:53:25;;;;;;;19.35;2.15;;;;;;;8.59;98.24;101571.88;2087723;28;28357;-73
2022/06/21 00:54:54;;;;;;;11.85;2.10;;;;;;;8.52;98.71;101564.78;2087916;28;29625;-73
2022/06/21 00:56:10;;;;;;;11.73;1.50;;;;;;;8.47;97.92;101564.81;2087592;28;29427;-72
2022/06/21 00:57:18;;;;;;;7.18;1.13;;;;;;;8.41;98.30;101565.69;2088896;28;27296;-72
2022/06/21 00:58:26;;;;;;;11.98;2.50;;;;;;;8.46;98.76;101562.16;2088431;28;20922;-72
2022/06/21 00:59:33;;;;;;;10.23;1.83;;;;;;;8.40;99.25;101557.72;2088500;28;20041;-71
2022/06/21 01:00:54;;;;;;;9.60;1.80;;;;;;;8.35;98.58;101560.38;2088074;28;20323;-73
2022/06/21 01:02:04;;;;;;;10.02;1.95;;;;;;;8.32;98.93;101563.06;2088727;28;20037;-75
2022/06/21 01:03:20;;;;;;;10.55;2.22;;;;;;;8.29;99.43;101555.09;2087549;28;20167;-73
2022/06/21 01:04:35;;;;;;;10.75;1.73;;;;;;;8.26;98.51;101559.53;2088295;28;28000;-71
2022/06/21 01:05:42;;;;;;;8.38;2.05;;;;;;;8.29;99.27;101548.84;2088860;28;26867;-73
2022/06/21 01:06:50;;;;;;;11.18;2.45;;;;;;;8.25;99.30;101547.06;2087693;28;24339;-74
2022/06/21 01:07:57;;;;;;;;;;;;;;;8.20;99.62;101549.75;2081680;28;22648;-73
2022/06/21 01:09:05;;;;;;;8.25;1.65;;;;;;;8.15;99.25;101556.91;2088083;28;31688;-72
2022/06/21 01:10:15;;;;;;;10.15;2.33;;;;;;;8.14;98.75;101560.44;2088931;28;20039;-73
2022/06/21 01:11:33;;;;;;;10.70;2.30;;;;;;;8.18;99.60;101571.13;2088134;28;21627;-72
2022/06/21 01:12:44;;;;;;;8.13;2.80;;;;;;;8.14;100.00;101561.31;2083689;28;20195;-72
2022/06/21 01:13:50;;;;;;;;;;;;;;;8.12;99.89;101567.56;2082917;28;41999;-74
2022/06/21 01:15:00;;;;;;;10.30;1.98;;;;;;;8.10;99.55;101564.03;2087284;28;28002;-73
2022/06/21 01:16:03;;;;;;;10.85;2.33;;;;;;;8.03;99.47;101566.69;2089047;28;20137;-74
2022/06/21 01:17:11;;;;;;;11.70;2.33;;;;;;;7.99;98.84;101564.94;2087627;28;23169;-71
2022/06/21 01:18:17;;;;;;;14.90;2.20;;;;;;;7.97;99.33;101572.06;2087789;28;20111;-73
2022/06/21 01:19:40;;;;;;;6.20;1.65;;;;;;;7.96;99.80;101572.94;2087821;28;26455;-71
2022/06/21 01:20:50;;;;;;;12.27;2.10;;;;;;;7.95;99.73;101573.84;2083843;28;20044;-74
2022/06/21 01:22:01;;;;;;;11.05;2.20;;;;;;;7.94;100.00;101572.06;2088373;28;20115;-72
2022/06/21 01:23:41;;;;;;;13.80;2.60;;;;;;;7.91;100.00;101573.84;2087142;28;27839;-71
2022/06/21 01:25:06;;;;;;;9.27;1.88;;;;;;;7.90;99.94;101567.63;2088567;28;20041;-72
2022/06/21 01:26:29;;;;;;;12.00;2.78;;;;;;;7.90;100.00;101572.06;2089107;28;20123;-73
2022/06/21 01:27:36;;;;;;;12.30;2.58;;;;;;;7.89;100.00;101571.16;2088228;28;29497;-73
2022/06/21 01:28:38;;;;;;;11.00;2.25;;;;;;;7.87;100.00;101572.94;2089232;28;20053;-73
2022/06/21 01:29:41;;;;;;;17.13;3.10;;;;;;;7.90;100.00;101574.75;2088575;28;20908;-72
2022/06/21 01:30:58;;;;;;;10.60;2.60;;;;;;;7.88;100.00;101579.16;2088828;28;20049;-73
2022/06/21 01:32:05;;;;;;;13.95;2.60;;;;;;;7.87;100.00;101577.41;2087681;28;20052;-71
2022/06/21 01:33:11;;;;;;;10.57;2.33;;;;;;;7.88;100.00;101574.75;2081139;28;26504;-74
2022/06/21 01:34:23;;;;;;;11.77;2.63;;;;;;;7.88;100.00;101573.84;2088548;28;20036;-73
2022/06/21 01:35:29;;;;;;;10.98;2.38;;;;;;;7.87;100.00;101580.06;2088094;28;28605;-74
2022/06/21 01:36:35;;;;;;;13.65;2.90;;;;;;;7.84;100.00;101573.84;2087850;28;20048;-74
2022/06/21 01:37:38;;;;;;;8.75;1.73;;;;;;;7.83;100.00;101581.84;2081222;28;20046;-71
2022/06/21 01:39:03;;;;;;;11.77;2.60;;;;;;;7.80;100.00;101579.19;2080671;28;20792;-73
2022/06/21 01:40:19;;;;;;;14.43;2.53;;;;;;;7.78;100.00;101571.19;2088232;28;24637;-73
2022/06/21 01:41:30;;;;;;;16.80;3.20;;;;;;;7.77;100.00;101587.16;2088143;28;21106;-71
2022/06/21 01:42:40;;;;;;;15.70;2.97;;;;;;;7.73;100.00;101569.41;2088327;28;25131;-72
2022/06/21 01:43:47;;;;;;;10.73;2.75;;;;;;;7.70;100.00;101566.75;2088104;28;27797;-71
2022/06/21 01:44:55;;;;;;;10.20;2.30;;;;;;;7.67;100.00;101574.75;2088182;28;30282;-71
2022/06/21 01:46:05;;;;;;;7.85;1.80;;;;;;;7.65;100.00;101575.63;2088679;28;20937;-72
2022/06/21 01:47:14;;;;;;;14.07;2.50;;;;;;;7.60;100.00;101577.41;2079985;28;33301;-71
2022/06/21 01:48:31;;;;;;;15.20;2.70;;;;;;;7.64;100.00;101583.63;2079866;28;20108;-71
2022/06/21 01:49:37;;;;;;;9.45;2.70;;;;;;;7.64;100.00;101573.88;2079669;28;28659;-72
2022/06/21 01:50:42;;;;;;;17.10;3.95;;;;;;;7.64;100.00;101576.56;2080344;28;26253;-72
2022/06/21 01:51:51;;;;;;;15.07;4.00;;;;;;;7.68;100.00;101581.84;2079657;28;20132;-71
2022/06/21 01:52:55;;;;;;;13.40;2.85;;;;;;;7.69;100.00;101579.19;2073220;28;27848;-71
2022/06/21 01:53:59;;;;;;;13.95;2.92;;;;;;;7.72;100.00;101578.31;2080280;28;26417;-71
2022/06/21 01:55:23;;;;;;;11.60;3.30;;;;;;;7.81;100.00;101572.97;2087719;28;20140;-71
2022/06/21 01:56:31;;;;;;;11.68;3.88;;;;;;;7.77;100.00;101563.19;2074748;28;26092;-71
2022/06/21 01:57:33;;;;;;;17.17;4.65;;;;;;;7.83;100.00;101571.19;2076078;28;26700;-71
2022/06/21 01:58:43;;;;;;;12.45;3.35;;;;;;;7.80;100.00;101565.84;2087280;28;28435;-73
2022/06/21 01:59:51;;;;;;;13.98;3.15;;;;;;;7.80;100.00;101569.41;2087762;28;20041;-73
2022/06/21 02:01:01;;;;;;;13.07;3.30;;;;;;;7.78;100.00;101565.84;2080445;28;27135;-73
2022/06/21 02:02:11;;;;;;;10.68;3.20;;;;;;;7.77;100.00;101566.75;2081390;28;20038;-72
2022/06/21 02:03:21;;;;;;;15.38;3.65;;;;;;;7.78;100.00;101564.97;2081848;28;37041;-71
2022/06/21 02:04:29;;;;;;;18.88;4.13;;;;;;;7.77;100.00;101558.75;2082124;28;20759;-71
2022/06/21 02:05:41;;;;;;;6.40;2.55;;;;;;;7.74;100.00;101556.09;2074039;28;20084;-71
2022/06/21 02:06:46;;;;;;;13.45;3.55;;;;;;;7.68;100.00;101556.13;2082571;28;23966;-72
2022/06/21 02:07:56;;;;;;;10.18;2.67;;;;;;;7.63;100.00;101547.22;2088117;28;20048;-71
2022/06/21 02:09:06;;;;;;;13.68;2.58;;;;;;;7.61;100.00;101560.56;2081394;28;31515;-71
2022/06/21 02:10:11;;;;;;;11.63;2.60;;;;;;;7.57;100.00;101544.56;2073266;28;20030;-71
2022/06/21 02:11:42;;;;;;;11.50;3.15;;;;;;;7.53;100.00;101553.44;2080676;28;35029;-72
2022/06/21 02:12:52;;;;;;;13.40;3.08;;;;;;;7.48;100.00;101550.78;2088056;28;20936;-72
2022/06/21 02:15:42;;;;;;;12.93;3.20;;;;;;;7.38;100.00;101541.03;2083689;28;29924;-72
2022/06/21 02:16:50;;;;;;;13.57;3.35;;;;;;;7.35;100.00;101541.03;2085927;28;20261;-72
2022/06/21 02:17:53;;;;;;;13.15;3.80;;;;;;;7.34;100.00;101544.56;2083804;28;26953;-72
2022/06/21 02:18:57;;;;;;;16.25;3.15;;;;;;;7.33;100.00;101548.13;2079691;28;20116;-72
2022/06/21 02:20:23;;;;;;;7.65;2.40;;;;;;;7.31;100.00;101544.56;2079841;28;32269;-72
2022/06/21 02:21:37;;;;;;;12.35;3.00;;;;;;;7.34;100.00;101544.56;2086977;28;38165;-72
2022/06/21 02:22:40;;;;;;;12.50;2.88;;;;;;;7.33;100.00;101548.13;2088614;28;20029;-72
2022/06/21 02:23:43;;;;;;;13.00;3.03;;;;;;;7.28;100.00;101545.44;2088432;28;21912;-72
2022/06/21 02:24:47;;;;;;;10.60;3.10;;;;;;;7.32;100.00;101552.56;2086766;28;25961;-72
2022/06/21 02:25:52;;;;;;;9.10;3.00;;;;;;;7.33;100.00;101545.47;2079681;28;30515;-72
2022/06/21 02:26:56;;;;;;;14.20;3.10;;;;;;;7.36;100.00;101548.13;2087453;28;24620;-72
2022/06/21 02:28:07;;;;;;;15.50;2.72;;;;;;;7.34;100.00;101540.13;2087247;28;32750;-72
2022/06/21 02:29:13;;;;;;;10.13;2.83;;;;;;;7.37;100.00;101541.91;2081219;28;20038;-72
2022/06/21 02:30:24;;;;;;;14.40;2.85;;;;;;;7.30;100.00;101538.34;2072887;28;20042;-72
2022/06/21 02:31:27;;;;;;;13.00;3.33;;;;;;;7.25;100.00;101549.00;2074871;28;20038;-72
2022/06/21 02:32:37;;;;;;;15.13;3.55;;;;;;;7.24;100.00;101546.34;2081362;28;20049;-72
2022/06/21 02:33:48;;;;;;;10.75;2.83;;;;;;;7.18;100.00;101547.22;2087315;28;25381;-72
2022/06/21 02:34:53;;;;;;;11.77;3.05;;;;;;;7.19;100.00;101545.44;2086913;28;31818;-72
2022/06/21 02:36:00;;;;;;;12.25;2.95;;;;;;;7.13;100.00;101543.66;2079166;28;23159;-72
2022/06/21 02:37:04;;;;;;;11.88;2.92;;;;;;;7.10;100.00;101546.31;2080545;28;28252;-72
2022/06/21 02:38:13;;;;;;;8.25;2.00;;;;;;;7.08;100.00;101537.44;2079935;28;27498;-72
2022/06/21 02:39:21;;;;;;;9.60;2.15;;;;;;;6.99;100.00;101534.78;2080744;28;20937;-71
2022/06/21 02:40:34;;;;;;;16.73;3.00;;;;;;;6.94;100.00;101532.09;2087907;28;20042;-71
2022/06/21 02:41:43;;;;;;;11.90;3.40;;;;;;;6.94;100.00;101528.56;2088284;28;20038;-71
2022/06/21 02:42:46;;;;;;;10.68;2.85;;;;;;;6.95;100.00;101531.22;2079468;28;20393;-71
2022/06/21 02:43:57;;;;;;;11.27;2.67;;;;;;;6.95;100.00;101536.53;2073758;28;20978;-71
2022/06/21 02:45:20;;;;;;;9.75;3.22;;;;;;;6.88;100.00;101540.97;2086343;28;22502;-72
2022/06/21 02:46:30;;;;;;;11.27;2.45;;;;;;;6.87;100.00;101528.56;2085360;28;25890;-72
2022/06/21 02:47:42;;;;;;;11.50;3.33;;;;;;;6.85;100.00;101534.75;2082185;28;32937;-72
2022/06/21 02:48:58;;;;;;;10.38;2.20;;;;;;;6.85;100.00;101538.28;2088729;28;20083;-73
2022/06/21 02:50:26;;;;;;;13.02;2.55;;;;;;;6.81;100.00;101543.63;2087430;28;39130;-73
2022/06/21 02:51:37;;;;;;;11.10;3.47;;;;;;;6.78;100.00;101544.47;2084372;28;20807;-73
2022/06/21 02:52:41;;;;;;;9.50;3.28;;;;;;;6.76;100.00;101546.25;2083564;28;30073;-73
2022/06/21 02:54:22;;;;;;;13.13;3.25;;;;;;;6.76;100.00;101553.34;2079913;28;23973;-73
2022/06/21 02:55:59;;;;;;;12.80;3.65;;;;;;;6.76;100.00;101556.03;2085182;28;20323;-73
2022/06/21 02:57:11;;;;;;;9.00;3.22;;;;;;;6.77;100.00;101556.03;2087342;28;21641;-73
2022/06/21 02:58:54;;;;;;;13.90;2.97;;;;;;;6.74;100.00;101553.34;2088136;28;28352;-73
2022/06/21 02:59:58;;;;;;;14.38;2.97;;;;;;;6.73;100.00;101551.59;2086907;28;20062;-73
2022/06/21 03:01:04;;;;;;;9.02;2.75;;;;;;;6.74;100.00;101553.34;2086987;28;20373;-73
2022/06/21 03:02:13;;;;;;;11.63;2.90;;;;;;;6.75;100.00;101549.81;2079546;28;20058;-73
2022/06/21 03:03:23;;;;;;;7.63;2.38;;;;;;;6.76;100.00;101542.72;2081269;28;20042;-72
2022/06/21 03:04:40;;;;;;;15.40;3.28;;;;;;;6.78;100.00;101544.47;2087866;28;20045;-73
2022/06/21 03:05:42;;;;;;;14.52;4.28;;;;;;;6.82;100.00;101546.28;2087818;28;20026;-73
2022/06/21 03:07:01;;;;;;;10.00;3.33;;;;;;;6.88;100.00;101534.75;2079465;28;34953;-72
2022/06/21 03:08:31;;;;;;;12.10;3.95;;;;;;;6.93;100.00;101526.75;2087502;28;20847;-73
2022/06/21 03:09:34;;;;;;;9.95;4.55;;;;;;;6.99;100.00;101526.78;2087665;28;24995;-73
2022/06/21 03:10:45;;;;;;;13.10;3.78;;;;;;;7.01;100.00;101527.69;2086902;28;24710;-73
2022/06/21 03:11:53;;;;;;;12.75;4.60;;;;;;;7.06;100.00;101528.56;2082357;28;21287;-73
2022/06/21 03:13:03;;;;;;;17.90;5.22;;;;;;;7.14;100.00;101532.16;2089070;28;36305;-74
2022/06/21 03:14:11;;;;;;;11.90;3.60;;;;;;;7.16;100.00;101533.03;2089178;28;20033;-73
2022/06/21 03:15:13;;;;;;;18.50;5.68;;;;;;;7.17;100.00;101536.56;2080435;28;32474;-72
2022/06/21 03:16:18;;;;;;;11.85;5.18;;;;;;;7.19;100.00;101538.34;2081226;28;22628;-73
2022/06/21 03:17:29;;;;;;;12.63;4.45;;;;;;;7.24;100.00;101538.34;2080816;28;26255;-72
2022/06/21 03:18:50;;;;;;;15.32;4.63;;;;;;;7.28;100.00;101539.25;2080540;28;20053;-73
2022/06/21 03:19:52;;;;;;;12.20;4.15;;;;;;;7.27;100.00;101554.34;2076827;28;20057;-73
2022/06/21 03:20:56;;;;;;;9.23;3.67;;;;;;;7.25;100.00;101551.69;2089562;28;20155;-73
2022/06/21 03:21:58;;;;;;;11.07;3.85;;;;;;;7.26;100.00;101553.44;2088297;28;29769;-73
2022/06/21 03:23:02;;;;;;;9.32;4.55;;;;;;;7.25;100.00;101548.13;2080985;28;20041;-73
2022/06/21 03:24:12;;;;;;;10.85;4.90;;;;;;;7.29;100.00;101549.03;2080873;28;26729;-73
2022/06/21 03:25:32;;;;;;;;;;;;;;;7.31;100.00;101550.78;2081516;28;37278;-73
2022/06/21 03:26:39;;;;;;;13.27;4.15;;;;;;;7.32;100.00;101543.66;2089296;28;20117;-73
2022/06/21 03:27:51;;;;;;;7.20;3.28;;;;;;;7.31;100.00;101547.25;2088340;28;23081;-73
2022/06/21 03:28:54;;;;;;;12.48;4.70;;;;;;;7.34;100.00;101539.22;2083123;28;20089;-73
2022/06/21 03:29:57;;;;;;;13.27;4.72;;;;;;;7.38;100.00;101536.56;2088817;28;20042;-73
2022/06/21 03:31:10;;;;;;;17.85;4.95;;;;;;;7.40;100.00;101540.13;2089151;28;20227;-73
2022/06/21 03:32:13;;;;;;;13.88;3.97;;;;;;;7.43;100.00;101533.94;2082011;28;21789;-73
2022/06/21 03:33:15;;;;;;;9.95;3.50;;;;;;;7.39;100.00;101537.47;2081511;28;22826;-73
2022/06/21 03:34:23;;;;;;;10.95;3.53;;;;;;;7.38;100.00;101535.69;2072324;28;20134;-73
2022/06/21 03:35:29;;;;;;;9.30;3.30;;;;;;;7.35;100.00;101533.03;2080294;28;23558;-73
2022/06/21 03:36:31;;;;;;;12.05;3.25;;;;;;;7.33;100.00;101538.34;2072525;28;20042;-73
2022/06/21 03:37:38;;;;;;;10.68;3.83;;;;;;;7.34;100.00;101539.22;2073078;28;20765;-73
2022/06/21 03:38:45;;;;;;;14.88;3.95;;;;;;;7.34;100.00;101537.47;2072911;28;27129;-74
2022/06/21 03:42:01;;;;;;;14.63;4.78;;;;;;;7.43;100.00;101539.25;2087398;28;34825;-73
2022/06/21 03:42:44;;;;;;;14.95;4.80;;;;;;;7.51;100.00;101532.13;2081324;28;20122;-73
2022/06/21 03:43:54;;;;;;;12.52;5.32;;;;;;;7.61;100.00;101536.56;2089202;28;21787;-74
2022/06/21 03:45:05;;;;;;;18.35;5.88;;;;;;;7.72;100.00;101535.69;2079394;28;42511;-73
2022/06/21 03:46:15;;;;;;;18.08;6.57;;;;;;;7.83;100.00;101539.19;2076062;28;20046;-74
2022/06/21 03:47:30;;;;;;;13.98;6.05;;;;;;;7.90;100.00;101535.63;2082064;28;32275;-73
2022/06/21 03:48:46;;;;;;;17.10;6.25;;;;;;;7.97;100.00;101531.19;2082848;28;31836;-74
2022/06/21 03:50:12;;;;;;;9.20;4.57;;;;;;;8.00;100.00;101531.16;2083790;28;25176;-74
2022/06/21 03:51:20;;;;;;;13.18;5.60;;;;;;;8.07;100.00;101534.69;2089073;28;20045;-74
2022/06/21 03:52:54;;;;;;;14.55;5.47;;;;;;;8.11;100.00;101539.13;2088450;28;29824;-74
2022/06/21 03:54:11;;;;;;;15.00;4.93;;;;;;;8.16;100.00;101537.31;2088223;28;21614;-74
2022/06/21 03:55:46;;;;;;;13.98;4.90;;;;;;;8.26;100.00;101543.53;2088917;28;30977;-75
2022/06/21 03:57:09;;;;;;;12.60;4.90;;;;;;;8.34;100.00;101539.03;2089289;28;20041;-74
2022/06/21 03:58:44;;;;;;;14.82;5.13;;;;;;;8.50;100.00;101548.78;2079698;28;28894;-74
2022/06/21 04:00:07;;;;;;;9.25;5.15;;;;;;;8.62;100.00;101534.50;2085773;28;24849;-74
2022/06/21 04:01:41;;;;;;;13.60;4.78;;;;;;;8.78;100.00;101544.19;2089256;28;20029;-74
2022/06/21 04:03:09;;;;;;;10.35;4.55;;;;;;;8.99;100.00;101536.97;2088521;28;20046;-74
2022/06/21 04:04:41;;;;;;;13.52;4.45;;;;;;;9.11;100.00;101541.31;2089258;28;20331;-73
2022/06/21 04:06:05;;;;;;;10.90;4.00;;;;;;;9.21;99.82;101542.16;2086450;28;20151;-74
2022/06/21 04:07:46;;;;;;;10.57;3.15;;;;;;;9.31;100.00;101541.16;2088784;28;20044;-74
2022/06/21 04:09:16;;;;;;;8.38;2.97;;;;;;;9.35;98.98;101540.25;2089803;28;20049;-74
2022/06/21 04:10:56;;;;;;;10.25;3.50;;;;;;;9.40;98.29;101549.09;2089085;28;24309;-74
2022/06/21 04:12:10;;;;;;;7.38;3.63;;;;;;;9.47;98.19;101550.81;2080698;28;29029;-74
2022/06/21 04:13:41;;;;;;;11.30;3.47;;;;;;;9.81;98.06;101545.16;2079767;28;28809;-74
2022/06/21 04:15:03;;;;;;;10.57;3.80;;;;;;;10.18;96.62;101536.75;2080991;28;20050;-74
2022/06/21 04:16:22;;;;;;;9.70;3.45;;;;;;;10.57;95.97;101541.63;2080051;28;28955;-74
2022/06/21 04:17:31;;;;;;;9.45;3.25;;;;;;;10.84;93.01;101541.28;2080385;28;20070;-74
2022/06/21 04:19:19;;;;;;;6.28;2.58;;;;;;;11.10;91.55;101526.59;2079952;28;34341;-74
2022/06/21 04:20:24;;;;;;;7.60;2.60;;;;;;;11.77;90.75;101531.72;2080757;28;20037;-74
2022/06/21 04:21:46;;;;;;;6.53;1.85;;;;;;;11.99;86.20;101525.06;2079837;28;38949;-74
2022/06/21 04:23:03;;;;;;;6.30;1.85;;;;;;;12.41;86.71;101522.41;2085123;28;20275;-74
2022/06/21 04:24:36;;;;;;;6.70;1.40;;;;;;;12.68;85.27;101524.53;2087972;28;29794;-74
2022/06/21 04:25:54;;;;;;;7.07;1.77;;;;;;;12.90;83.93;101520.47;2089372;28;20171;-75
2022/06/21 04:27:11;;;;;;;6.35;1.80;;;;;;;13.20;82.32;101526.00;2088469;28;24338;-74
2022/06/21 04:28:32;;;;;;;7.25;2.00;;;;;;;13.57;79.33;101522.44;2087897;28;20034;-74
2022/06/21 04:29:50;;;;;;;4.82;1.38;;;;;;;14.08;80.25;101519.22;2079750;28;28116;-74
2022/06/21 04:31:06;;;;;;;5.30;1.60;;;;;;;14.30;77.86;101518.63;2084019;28;37500;-75
2022/06/21 04:32:40;;;;;;;7.35;1.60;;;;;;;14.49;76.73;101518.97;2088158;28;39179;-74
2022/06/21 04:34:19;;;;;;;4.25;1.40;;;;;;;15.16;73.38;101518.69;2087946;28;20138;-75
2022/06/21 04:35:34;;;;;;;7.93;1.45;;;;;;;16.05;70.59;101511.19;2078916;28;20108;-74
2022/06/21 04:36:46;;;;;;;3.92;1.20;;;;;;;16.90;68.89;101506.13;2077566;28;20034;-75
2022/06/21 04:37:55;;;;;;;4.18;0.82;;;;;;;17.41;65.40;101502.22;2084312;28;20940;-75
2022/06/21 04:39:35;;;;;;;4.53;0.80;;;;;;;17.41;62.45;101495.91;2081695;28;37308;-75
2022/06/21 04:40:56;;;;;;;6.50;1.08;;;;;;;18.19;61.45;101494.31;2084316;28;22304;-75
2022/06/21 04:42:16;;;;;;;7.90;0.88;;;;;;;18.34;60.14;101498.16;2088181;28;27461;-74
2022/06/21 04:43:30;;;;;;;5.72;1.10;;;;;;;18.70;60.37;101492.84;2084023;28;23543;-74
2022/06/21 04:45:02;;;;;;;7.22;0.93;;;;;;;18.58;59.25;101490.72;2090890;28;28420;-75
2022/06/21 04:46:18;;;;;;;5.68;1.10;;;;;;;19.21;59.05;101493.94;2092263;28;41868;-75
2022/06/21 04:47:33;;;;;;;6.57;1.08;;;;;;;20.00;57.32;101489.91;2079355;28;20045;-74
2022/06/21 04:48:48;;;;;;;5.97;1.15;;;;;;;20.92;54.59;101500.25;2077168;28;23392;-76
2022/06/21 04:50:25;;;;;;;5.25;1.10;;;;;;;21.31;52.64;101505.22;2083509;28;28362;-76
2022/06/21 04:51:38;;;;;;;6.35;1.30;;;;;;;22.04;50.27;101495.44;2085638;28;33625;-75
2022/06/21 04:53:07;;;;;;;4.57;0.77;;;;;;;22.76;48.97;101500.91;2084989;28;37373;-74
2022/06/21 04:54:25;;;;;;;5.82;1.10;;;;;;;21.83;47.71;101505.81;2084292;28;20195;-74
2022/06/21 04:55:42;;;;;;;5.60;0.98;;;;;;;22.41;47.26;101513.09;2077907;28;20080;-74
2022/06/21 04:57:13;;;;;;;7.55;1.48;;;;;;;22.14;47.26;101512.97;2084044;28;20160;-75
2022/06/21 04:58:17;;;;;;;2.92;0.60;;;;;;;23.15;48.68;101513.81;2089006;28;20132;-74
2022/06/21 04:59:31;;;;;;;5.53;0.85;;;;;;;23.09;46.12;101521.53;2088032;28;20156;-74
2022/06/21 05:00:35;;;;;;;3.75;1.00;;;;;;;23.66;45.20;101518.56;2088520;28;23029;-74
2022/06/21 05:01:37;;;;;;;6.03;1.05;;;;;;;23.79;44.15;101519.44;2088451;28;21905;-74
2022/06/21 05:02:46;;;;;;;5.63;1.15;;;;;;;23.32;45.72;101526.31;2088165;28;20194;-74
2022/06/21 05:03:48;;;;;;;6.07;1.13;;;;;;;23.36;45.36;101519.66;2081267;28;21973;-73
2022/06/21 05:05:04;;;;;;;4.95;0.98;;;;;;;22.40;44.87;101524.16;2088419;28;20914;-73
2022/06/21 05:06:12;;;;;;;3.72;0.85;;;;;;;22.52;47.07;101531.53;2089153;28;20985;-73
2022/06/21 05:07:22;;;;;;;4.53;0.73;;;;;;;22.29;47.92;101530.28;2088947;28;20813;-74
2022/06/21 05:08:24;;;;;;;;;;;;;;;21.76;45.80;101531.72;2088866;28;20127;-74
2022/06/21 05:09:32;;;;;;;5.78;1.00;;;;;;;21.14;48.15;101543.50;2087581;28;19920;-76
2022/06/21 05:10:40;;;;;;;4.00;0.88;;;;;;;20.27;51.55;101541.06;2087879;28;34835;-76
2022/06/21 05:11:46;;;;;;;4.30;0.77;;;;;;;19.98;53.50;101547.06;2078941;28;21495;-74
2022/06/21 05:12:51;;;;;;;4.10;0.73;;;;;;;19.79;53.44;101547.19;2082452;28;20879;-75
2022/06/21 05:13:58;;;;;;;6.07;0.85;;;;;;;19.21;54.56;101550.09;2087791;28;25343;-76
2022/06/21 05:15:31;;;;;;;6.50;1.30;;;;;;;18.43;56.19;101551.94;2081597;28;20196;-76
2022/06/21 05:16:40;;;;;;;5.22;1.00;;;;;;;18.63;57.05;101557.34;2085204;28;20107;-73
2022/06/21 05:17:52;;;;;;;3.97;0.75;;;;;;;18.57;54.75;101545.88;2087997;28;29006;-74
2022/06/21 05:19:12;;;;;;;4.93;0.90;;;;;;;18.49;55.60;101551.69;2088613;28;20185;-74
2022/06/21 05:20:33;;;;;;;6.15;1.10;;;;;;;18.07;57.66;101550.84;2083545;28;20038;-74
2022/06/21 05:21:43;;;;;;;3.55;0.90;;;;;;;18.32;58.62;101549.72;2083659;28;20974;-74
2022/06/21 05:22:50;;;;;;;6.75;1.30;;;;;;;18.06;57.45;101556.34;2083111;28;29911;-73
2022/06/21 05:23:51;;;;;;;4.82;1.23;;;;;;;18.29;57.09;101550.75;2088307;28;20033;-74
2022/06/21 05:24:59;;;;;;;8.20;1.27;;;;;;;18.07;56.82;101552.66;2089008;28;21926;-73
2022/06/21 05:26:12;;;;;;;6.70;1.30;;;;;;;18.24;58.03;101551.91;2088030;28;20132;-73
2022/06/21 05:27:30;;;;;;;5.63;1.10;;;;;;;18.16;57.10;101563.13;2073767;28;21952;-75
2022/06/21 05:28:48;;;;;;;6.22;1.20;;;;;;;18.00;58.20;101549.38;2077463;28;29836;-74
2022/06/21 05:30:12;;;;;;;4.47;1.20;;;;;;;18.13;55.92;101555.13;2088420;28;20049;-75
2022/06/21 05:31:23;;;;;;;4.57;1.00;;;;;;;18.21;57.05;101547.50;2088124;28;20038;-74
2022/06/21 05:32:42;;;;;;;6.20;1.27;;;;;;;18.65;56.82;101546.41;2088167;28;20338;-74
2022/06/21 05:34:01;;;;;;;6.28;0.90;;;;;;;19.04;56.11;101538.22;2087285;28;20131;-74
2022/06/21 05:35:14;;;;;;;7.25;1.45;;;;;;;19.69;54.04;101545.84;2084005;28;22263;-73
2022/06/21 05:36:39;;;;;;;3.22;1.08;;;;;;;20.64;50.82;101544.47;2083244;28;32922;-73
2022/06/21 05:38:27;;;;;;;5.35;1.15;;;;;;;21.79;47.45;101539.72;2084038;28;21186;-73
2022/06/21 05:39:40;;;;;;;6.85;2.10;;;;;;;22.44;46.70;101542.94;2084078;28;31432;-74
2022/06/21 05:40:53;;;;;;;7.13;1.20;;;;;;;23.06;46.72;101531.69;2087450;28;23023;-75